sensor_id;sensor_type;location;lat;lon;timestamp;P1;durP1;ratioP1;P2;durP2;ratioP2
51814;SDS011;37874;53.158;6.766;2023-04-15T00:00:15;2.15;;;0.80;;
51814;SDS011;37874;53.158;6.766;2023-04-15T00:02:41;3.10;;;0.93;;
51814;SDS011;37874;53.158;6.766;2023-04-15T00:05:08;2.70;;;0.95;;
51814;SDS011;37874;53.158;6.766;2023-04-15T00:07:34;2.72;;;0.85;;
51814;SDS011;37874;53.158;6.766;2023-04-15T00:10:00;2.08;;;0.88;;
51814;SDS011;37874;53.158;6.766;2023-04-15T00:12:26;2.28;;;0.80;;
51814;SDS011;37874;53.158;6.766;2023-04-15T00:14:52;2.20;;;0.90;;
51814;SDS011;37874;53.158;6.766;2023-04-15T00:17:18;2.92;;;0.90;;
51814;SDS011;37874;53.158;6.766;2023-04-15T00:19:44;1.67;;;0.80;;
51814;SDS011;37874;53.158;6.766;2023-04-15T00:22:10;1.73;;;0.70;;
51814;SDS011;37874;53.158;6.766;2023-04-15T00:24:36;2.80;;;1.02;;
51814;SDS011;37874;53.158;6.766;2023-04-15T00:27:02;1.88;;;0.70;;
51814;SDS011;37874;53.158;6.766;2023-04-15T00:29:28;1.85;;;0.80;;
51814;SDS011;37874;53.158;6.766;2023-04-15T00:31:54;3.08;;;0.80;;
51814;SDS011;37874;53.158;6.766;2023-04-15T00:34:21;2.28;;;0.80;;
51814;SDS011;37874;53.158;6.766;2023-04-15T00:36:47;1.98;;;0.85;;
51814;SDS011;37874;53.158;6.766;2023-04-15T00:39:13;2.58;;;0.90;;
51814;SDS011;37874;53.158;6.766;2023-04-15T00:41:40;2.35;;;0.82;;
51814;SDS011;37874;53.158;6.766;2023-04-15T00:44:06;1.75;;;0.80;;
51814;SDS011;37874;53.158;6.766;2023-04-15T00:46:34;2.15;;;0.80;;
51814;SDS011;37874;53.158;6.766;2023-04-15T00:49:01;2.63;;;0.80;;
51814;SDS011;37874;53.158;6.766;2023-04-15T00:51:28;3.42;;;0.90;;
51814;SDS011;37874;53.158;6.766;2023-04-15T00:53:55;1.77;;;0.80;;
51814;SDS011;37874;53.158;6.766;2023-04-15T00:56:21;2.55;;;0.82;;
51814;SDS011;37874;53.158;6.766;2023-04-15T00:58:48;1.90;;;0.80;;
51814;SDS011;37874;53.158;6.766;2023-04-15T01:01:15;2.83;;;0.60;;
51814;SDS011;37874;53.158;6.766;2023-04-15T01:03:45;1.80;;;0.80;;
51814;SDS011;37874;53.158;6.766;2023-04-15T01:06:11;2.17;;;0.82;;
51814;SDS011;37874;53.158;6.766;2023-04-15T01:08:38;2.80;;;1.25;;
51814;SDS011;37874;53.158;6.766;2023-04-15T01:11:03;2.58;;;0.85;;
51814;SDS011;37874;53.158;6.766;2023-04-15T01:13:29;2.13;;;0.80;;
51814;SDS011;37874;53.158;6.766;2023-04-15T01:15:55;3.00;;;1.13;;
51814;SDS011;37874;53.158;6.766;2023-04-15T01:18:21;2.50;;;0.90;;
51814;SDS011;37874;53.158;6.766;2023-04-15T01:20:47;2.63;;;0.90;;
51814;SDS011;37874;53.158;6.766;2023-04-15T01:23:13;2.88;;;0.90;;
51814;SDS011;37874;53.158;6.766;2023-04-15T01:25:41;1.88;;;0.70;;
51814;SDS011;37874;53.158;6.766;2023-04-15T01:28:08;2.65;;;0.95;;
51814;SDS011;37874;53.158;6.766;2023-04-15T01:30:34;2.65;;;0.90;;
51814;SDS011;37874;53.158;6.766;2023-04-15T01:33:01;2.50;;;0.85;;
51814;SDS011;37874;53.158;6.766;2023-04-15T01:35:27;2.15;;;0.88;;
51814;SDS011;37874;53.158;6.766;2023-04-15T01:37:53;2.00;;;0.80;;
51814;SDS011;37874;53.158;6.766;2023-04-15T01:40:19;1.90;;;0.90;;
51814;SDS011;37874;53.158;6.766;2023-04-15T01:42:45;2.28;;;0.88;;
51814;SDS011;37874;53.158;6.766;2023-04-15T01:45:11;2.10;;;0.90;;
51814;SDS011;37874;53.158;6.766;2023-04-15T01:47:40;2.92;;;0.90;;
51814;SDS011;37874;53.158;6.766;2023-04-15T01:50:06;1.75;;;0.77;;
51814;SDS011;37874;53.158;6.766;2023-04-15T01:52:32;2.28;;;0.80;;
51814;SDS011;37874;53.158;6.766;2023-04-15T01:54:58;2.10;;;0.75;;
51814;SDS011;37874;53.158;6.766;2023-04-15T01:57:23;1.88;;;0.77;;
51814;SDS011;37874;53.158;6.766;2023-04-15T01:59:49;1.65;;;0.70;;
51814;SDS011;37874;53.158;6.766;2023-04-15T02:02:15;1.65;;;0.60;;
51814;SDS011;37874;53.158;6.766;2023-04-15T02:04:41;2.72;;;0.80;;
51814;SDS011;37874;53.158;6.766;2023-04-15T02:07:07;1.45;;;0.80;;
51814;SDS011;37874;53.158;6.766;2023-04-15T02:09:32;1.80;;;0.82;;
51814;SDS011;37874;53.158;6.766;2023-04-15T02:11:58;1.55;;;0.80;;
51814;SDS011;37874;53.158;6.766;2023-04-15T02:14:24;1.80;;;0.95;;
51814;SDS011;37874;53.158;6.766;2023-04-15T02:16:51;1.63;;;0.70;;
51814;SDS011;37874;53.158;6.766;2023-04-15T02:19:16;2.00;;;0.77;;
51814;SDS011;37874;53.158;6.766;2023-04-15T02:21:42;1.88;;;0.90;;
51814;SDS011;37874;53.158;6.766;2023-04-15T02:24:07;2.47;;;0.75;;
51814;SDS011;37874;53.158;6.766;2023-04-15T02:26:33;1.73;;;0.80;;
51814;SDS011;37874;53.158;6.766;2023-04-15T02:28:59;1.20;;;0.70;;
51814;SDS011;37874;53.158;6.766;2023-04-15T02:31:24;2.03;;;1.00;;
51814;SDS011;37874;53.158;6.766;2023-04-15T02:33:50;1.88;;;0.77;;
51814;SDS011;37874;53.158;6.766;2023-04-15T02:36:16;2.30;;;0.77;;
51814;SDS011;37874;53.158;6.766;2023-04-15T02:38:41;2.05;;;0.95;;
51814;SDS011;37874;53.158;6.766;2023-04-15T02:41:10;1.27;;;0.77;;
51814;SDS011;37874;53.158;6.766;2023-04-15T02:43:36;2.05;;;0.70;;
51814;SDS011;37874;53.158;6.766;2023-04-15T02:46:04;1.83;;;0.88;;
51814;SDS011;37874;53.158;6.766;2023-04-15T02:48:30;1.88;;;0.85;;
51814;SDS011;37874;53.158;6.766;2023-04-15T02:51:09;1.73;;;0.75;;
51814;SDS011;37874;53.158;6.766;2023-04-15T02:53:36;1.88;;;0.90;;
51814;SDS011;37874;53.158;6.766;2023-04-15T02:56:02;1.90;;;0.90;;
51814;SDS011;37874;53.158;6.766;2023-04-15T02:58:27;2.15;;;0.90;;
51814;SDS011;37874;53.158;6.766;2023-04-15T03:00:53;1.20;;;0.77;;
51814;SDS011;37874;53.158;6.766;2023-04-15T03:03:18;2.20;;;0.98;;
51814;SDS011;37874;53.158;6.766;2023-04-15T03:05:44;3.30;;;1.08;;
51814;SDS011;37874;53.158;6.766;2023-04-15T03:08:10;1.58;;;0.88;;
51814;SDS011;37874;53.158;6.766;2023-04-15T03:10:36;1.83;;;0.90;;
51814;SDS011;37874;53.158;6.766;2023-04-15T03:13:01;2.05;;;1.00;;
51814;SDS011;37874;53.158;6.766;2023-04-15T03:15:27;2.35;;;0.95;;
51814;SDS011;37874;53.158;6.766;2023-04-15T03:17:52;2.40;;;1.10;;
51814;SDS011;37874;53.158;6.766;2023-04-15T03:20:18;1.70;;;1.00;;
51814;SDS011;37874;53.158;6.766;2023-04-15T03:22:44;1.92;;;0.80;;
51814;SDS011;37874;53.158;6.766;2023-04-15T03:25:09;2.40;;;1.27;;
51814;SDS011;37874;53.158;6.766;2023-04-15T03:27:36;1.92;;;1.10;;
51814;SDS011;37874;53.158;6.766;2023-04-15T03:30:02;1.67;;;0.98;;
51814;SDS011;37874;53.158;6.766;2023-04-15T03:32:28;2.13;;;1.10;;
51814;SDS011;37874;53.158;6.766;2023-04-15T03:34:53;2.08;;;1.05;;
51814;SDS011;37874;53.158;6.766;2023-04-15T03:37:19;1.90;;;1.00;;
51814;SDS011;37874;53.158;6.766;2023-04-15T03:39:45;2.47;;;0.98;;
51814;SDS011;37874;53.158;6.766;2023-04-15T03:42:10;2.00;;;1.20;;
51814;SDS011;37874;53.158;6.766;2023-04-15T03:44:36;2.03;;;1.05;;
51814;SDS011;37874;53.158;6.766;2023-04-15T03:47:02;2.17;;;1.10;;
51814;SDS011;37874;53.158;6.766;2023-04-15T03:49:28;1.88;;;1.02;;
51814;SDS011;37874;53.158;6.766;2023-04-15T03:51:53;2.17;;;0.98;;
51814;SDS011;37874;53.158;6.766;2023-04-15T03:54:19;1.77;;;0.80;;
51814;SDS011;37874;53.158;6.766;2023-04-15T03:56:45;1.65;;;1.10;;
51814;SDS011;37874;53.158;6.766;2023-04-15T03:59:10;1.73;;;1.00;;
51814;SDS011;37874;53.158;6.766;2023-04-15T04:01:36;1.65;;;0.90;;
51814;SDS011;37874;53.158;6.766;2023-04-15T04:04:01;2.05;;;1.05;;
51814;SDS011;37874;53.158;6.766;2023-04-15T04:06:27;1.77;;;0.90;;
51814;SDS011;37874;53.158;6.766;2023-04-15T04:08:52;2.03;;;1.10;;
51814;SDS011;37874;53.158;6.766;2023-04-15T04:11:18;2.13;;;1.00;;
51814;SDS011;37874;53.158;6.766;2023-04-15T04:13:43;1.92;;;1.00;;
51814;SDS011;37874;53.158;6.766;2023-04-15T04:16:09;1.33;;;0.90;;
51814;SDS011;37874;53.158;6.766;2023-04-15T04:18:35;2.22;;;1.00;;
51814;SDS011;37874;53.158;6.766;2023-04-15T04:21:00;2.05;;;1.00;;
51814;SDS011;37874;53.158;6.766;2023-04-15T04:23:26;1.50;;;1.00;;
51814;SDS011;37874;53.158;6.766;2023-04-15T04:25:51;2.20;;;1.05;;
51814;SDS011;37874;53.158;6.766;2023-04-15T04:28:17;1.88;;;1.00;;
51814;SDS011;37874;53.158;6.766;2023-04-15T04:30:43;2.03;;;1.20;;
51814;SDS011;37874;53.158;6.766;2023-04-15T04:33:09;2.15;;;1.20;;
51814;SDS011;37874;53.158;6.766;2023-04-15T04:35:34;2.30;;;1.10;;
51814;SDS011;37874;53.158;6.766;2023-04-15T04:38:02;1.70;;;1.13;;
51814;SDS011;37874;53.158;6.766;2023-04-15T04:40:28;1.73;;;1.00;;
51814;SDS011;37874;53.158;6.766;2023-04-15T04:42:53;1.75;;;1.20;;
51814;SDS011;37874;53.158;6.766;2023-04-15T04:45:19;1.63;;;1.00;;
51814;SDS011;37874;53.158;6.766;2023-04-15T04:47:45;2.33;;;1.20;;
51814;SDS011;37874;53.158;6.766;2023-04-15T04:50:11;2.08;;;1.02;;
51814;SDS011;37874;53.158;6.766;2023-04-15T04:52:37;2.20;;;1.10;;
51814;SDS011;37874;53.158;6.766;2023-04-15T04:55:02;1.90;;;1.10;;
51814;SDS011;37874;53.158;6.766;2023-04-15T04:57:28;2.33;;;1.13;;
51814;SDS011;37874;53.158;6.766;2023-04-15T04:59:54;1.85;;;1.10;;
51814;SDS011;37874;53.158;6.766;2023-04-15T05:02:19;1.48;;;1.17;;
51814;SDS011;37874;53.158;6.766;2023-04-15T05:04:45;1.70;;;1.02;;
51814;SDS011;37874;53.158;6.766;2023-04-15T05:07:11;1.92;;;1.08;;
51814;SDS011;37874;53.158;6.766;2023-04-15T05:09:37;1.98;;;1.10;;
51814;SDS011;37874;53.158;6.766;2023-04-15T05:12:03;2.20;;;1.02;;
51814;SDS011;37874;53.158;6.766;2023-04-15T05:14:29;1.80;;;1.10;;
51814;SDS011;37874;53.158;6.766;2023-04-15T05:16:55;1.70;;;0.95;;
51814;SDS011;37874;53.158;6.766;2023-04-15T05:19:21;1.98;;;1.20;;
51814;SDS011;37874;53.158;6.766;2023-04-15T05:21:46;2.17;;;1.20;;
51814;SDS011;37874;53.158;6.766;2023-04-15T05:24:12;2.08;;;1.13;;
51814;SDS011;37874;53.158;6.766;2023-04-15T05:26:37;1.80;;;1.00;;
51814;SDS011;37874;53.158;6.766;2023-04-15T05:29:03;1.50;;;1.00;;
51814;SDS011;37874;53.158;6.766;2023-04-15T05:31:29;1.80;;;1.10;;
51814;SDS011;37874;53.158;6.766;2023-04-15T05:33:54;2.38;;;1.08;;
51814;SDS011;37874;53.158;6.766;2023-04-15T05:36:20;2.08;;;1.00;;
51814;SDS011;37874;53.158;6.766;2023-04-15T05:38:46;2.00;;;1.00;;
51814;SDS011;37874;53.158;6.766;2023-04-15T05:41:11;2.10;;;1.02;;
51814;SDS011;37874;53.158;6.766;2023-04-15T05:43:39;1.48;;;0.77;;
51814;SDS011;37874;53.158;6.766;2023-04-15T05:46:05;1.55;;;0.90;;
51814;SDS011;37874;53.158;6.766;2023-04-15T05:48:31;1.42;;;0.80;;
51814;SDS011;37874;53.158;6.766;2023-04-15T05:50:56;1.10;;;0.70;;
51814;SDS011;37874;53.158;6.766;2023-04-15T05:53:22;1.63;;;0.80;;
51814;SDS011;37874;53.158;6.766;2023-04-15T05:55:48;1.50;;;0.90;;
51814;SDS011;37874;53.158;6.766;2023-04-15T05:58:13;1.98;;;1.13;;
51814;SDS011;37874;53.158;6.766;2023-04-15T06:00:39;2.20;;;1.20;;
51814;SDS011;37874;53.158;6.766;2023-04-15T06:03:05;2.20;;;1.27;;
51814;SDS011;37874;53.158;6.766;2023-04-15T06:05:31;3.08;;;1.10;;
51814;SDS011;37874;53.158;6.766;2023-04-15T06:07:57;2.63;;;1.00;;
51814;SDS011;37874;53.158;6.766;2023-04-15T06:10:23;1.95;;;0.80;;
51814;SDS011;37874;53.158;6.766;2023-04-15T06:12:48;3.08;;;1.10;;
51814;SDS011;37874;53.158;6.766;2023-04-15T06:15:14;2.55;;;1.40;;
51814;SDS011;37874;53.158;6.766;2023-04-15T06:17:40;2.90;;;1.20;;
51814;SDS011;37874;53.158;6.766;2023-04-15T06:20:06;3.08;;;1.20;;
51814;SDS011;37874;53.158;6.766;2023-04-15T06:22:32;3.75;;;1.27;;
51814;SDS011;37874;53.158;6.766;2023-04-15T06:24:58;2.88;;;1.40;;
51814;SDS011;37874;53.158;6.766;2023-04-15T06:27:23;2.97;;;1.20;;
51814;SDS011;37874;53.158;6.766;2023-04-15T06:29:49;5.35;;;1.50;;
51814;SDS011;37874;53.158;6.766;2023-04-15T06:32:14;2.63;;;1.23;;
51814;SDS011;37874;53.158;6.766;2023-04-15T06:34:40;3.80;;;1.15;;
51814;SDS011;37874;53.158;6.766;2023-04-15T06:37:06;2.83;;;1.30;;
51814;SDS011;37874;53.158;6.766;2023-04-15T06:39:33;3.42;;;1.20;;
51814;SDS011;37874;53.158;6.766;2023-04-15T06:41:59;3.38;;;1.25;;
51814;SDS011;37874;53.158;6.766;2023-04-15T06:44:25;2.33;;;0.82;;
51814;SDS011;37874;53.158;6.766;2023-04-15T06:46:51;6.70;;;1.40;;
51814;SDS011;37874;53.158;6.766;2023-04-15T06:49:16;2.63;;;1.23;;
51814;SDS011;37874;53.158;6.766;2023-04-15T06:51:42;3.58;;;1.30;;
51814;SDS011;37874;53.158;6.766;2023-04-15T06:54:07;4.05;;;1.25;;
51814;SDS011;37874;53.158;6.766;2023-04-15T06:56:33;2.13;;;1.05;;
51814;SDS011;37874;53.158;6.766;2023-04-15T06:58:59;4.35;;;1.15;;
51814;SDS011;37874;53.158;6.766;2023-04-15T07:01:24;3.70;;;1.52;;
51814;SDS011;37874;53.158;6.766;2023-04-15T07:03:50;2.80;;;1.25;;
51814;SDS011;37874;53.158;6.766;2023-04-15T07:06:16;2.88;;;1.02;;
51814;SDS011;37874;53.158;6.766;2023-04-15T07:08:42;3.35;;;1.40;;
51814;SDS011;37874;53.158;6.766;2023-04-15T07:11:07;4.10;;;1.30;;
51814;SDS011;37874;53.158;6.766;2023-04-15T07:13:33;2.75;;;1.10;;
51814;SDS011;37874;53.158;6.766;2023-04-15T07:15:59;1.98;;;1.10;;
51814;SDS011;37874;53.158;6.766;2023-04-15T07:18:24;3.40;;;1.30;;
51814;SDS011;37874;53.158;6.766;2023-04-15T07:20:50;2.40;;;1.00;;
51814;SDS011;37874;53.158;6.766;2023-04-15T07:23:16;2.00;;;0.90;;
51814;SDS011;37874;53.158;6.766;2023-04-15T07:25:42;2.25;;;1.00;;
51814;SDS011;37874;53.158;6.766;2023-04-15T07:28:07;2.30;;;1.08;;
51814;SDS011;37874;53.158;6.766;2023-04-15T07:30:33;2.50;;;1.08;;
51814;SDS011;37874;53.158;6.766;2023-04-15T09:34:10;2.10;;;0.93;;
51814;SDS011;37874;53.158;6.766;2023-04-15T09:36:55;1.42;;;0.82;;
51814;SDS011;37874;53.158;6.766;2023-04-15T09:39:21;1.95;;;1.00;;
51814;SDS011;37874;53.158;6.766;2023-04-15T09:42:02;3.28;;;0.90;;
51814;SDS011;37874;53.158;6.766;2023-04-15T09:44:31;1.65;;;0.93;;
51814;SDS011;37874;53.158;6.766;2023-04-15T09:46:57;2.47;;;0.90;;
51814;SDS011;37874;53.158;6.766;2023-04-15T09:49:23;4.05;;;1.00;;
51814;SDS011;37874;53.158;6.766;2023-04-15T09:51:48;2.00;;;0.90;;
51814;SDS011;37874;53.158;6.766;2023-04-15T09:54:20;2.30;;;0.98;;
51814;SDS011;37874;53.158;6.766;2023-04-15T09:56:46;1.90;;;0.95;;
51814;SDS011;37874;53.158;6.766;2023-04-15T09:59:11;2.20;;;1.08;;
51814;SDS011;37874;53.158;6.766;2023-04-15T10:01:37;2.50;;;1.00;;
51814;SDS011;37874;53.158;6.766;2023-04-15T10:04:05;3.17;;;1.20;;
51814;SDS011;37874;53.158;6.766;2023-04-15T10:06:31;2.47;;;0.93;;
51814;SDS011;37874;53.158;6.766;2023-04-15T10:08:57;2.88;;;0.90;;
51814;SDS011;37874;53.158;6.766;2023-04-15T10:11:26;2.58;;;1.02;;
51814;SDS011;37874;53.158;6.766;2023-04-15T10:13:53;2.40;;;1.08;;
51814;SDS011;37874;53.158;6.766;2023-04-15T10:16:20;2.45;;;0.80;;
51814;SDS011;37874;53.158;6.766;2023-04-15T10:18:53;2.47;;;0.90;;
51814;SDS011;37874;53.158;6.766;2023-04-15T10:21:20;2.30;;;1.13;;
51814;SDS011;37874;53.158;6.766;2023-04-15T10:23:47;2.13;;;0.93;;
51814;SDS011;37874;53.158;6.766;2023-04-15T10:26:14;1.77;;;0.90;;
51814;SDS011;37874;53.158;6.766;2023-04-15T10:28:41;2.85;;;0.90;;
51814;SDS011;37874;53.158;6.766;2023-04-15T10:31:07;1.95;;;0.90;;
51814;SDS011;37874;53.158;6.766;2023-04-15T12:34:50;1.67;;;0.63;;
51814;SDS011;37874;53.158;6.766;2023-04-15T12:37:17;1.92;;;0.70;;
51814;SDS011;37874;53.158;6.766;2023-04-15T12:39:43;2.30;;;0.90;;
51814;SDS011;37874;53.158;6.766;2023-04-15T12:42:11;2.47;;;0.93;;
51814;SDS011;37874;53.158;6.766;2023-04-15T12:44:38;1.90;;;0.60;;
51814;SDS011;37874;53.158;6.766;2023-04-15T12:47:04;3.40;;;1.13;;
51814;SDS011;37874;53.158;6.766;2023-04-15T12:49:32;2.35;;;0.75;;
51814;SDS011;37874;53.158;6.766;2023-04-15T12:51:58;2.25;;;0.85;;
51814;SDS011;37874;53.158;6.766;2023-04-15T12:54:25;3.50;;;1.00;;
51814;SDS011;37874;53.158;6.766;2023-04-15T12:56:51;2.00;;;0.70;;
51814;SDS011;37874;53.158;6.766;2023-04-15T12:59:18;4.82;;;0.73;;
51814;SDS011;37874;53.158;6.766;2023-04-15T13:01:44;2.83;;;0.60;;
51814;SDS011;37874;53.158;6.766;2023-04-15T13:04:11;2.85;;;0.80;;
51814;SDS011;37874;53.158;6.766;2023-04-15T13:06:36;2.85;;;1.00;;
51814;SDS011;37874;53.158;6.766;2023-04-15T13:09:02;1.92;;;0.60;;
51814;SDS011;37874;53.158;6.766;2023-04-15T13:11:28;1.70;;;0.43;;
51814;SDS011;37874;53.158;6.766;2023-04-15T13:14:01;2.28;;;0.70;;
51814;SDS011;37874;53.158;6.766;2023-04-15T13:16:28;2.78;;;1.00;;
51814;SDS011;37874;53.158;6.766;2023-04-15T13:18:54;2.85;;;0.90;;
51814;SDS011;37874;53.158;6.766;2023-04-15T13:21:20;1.40;;;0.52;;
51814;SDS011;37874;53.158;6.766;2023-04-15T13:23:45;1.95;;;0.70;;
51814;SDS011;37874;53.158;6.766;2023-04-15T13:26:13;2.88;;;0.70;;
51814;SDS011;37874;53.158;6.766;2023-04-15T13:28:38;2.22;;;0.68;;
51814;SDS011;37874;53.158;6.766;2023-04-15T13:31:04;2.15;;;0.70;;
51814;SDS011;37874;53.158;6.766;2023-04-15T13:33:30;2.50;;;0.88;;
51814;SDS011;37874;53.158;6.766;2023-04-15T13:35:55;1.83;;;0.60;;
51814;SDS011;37874;53.158;6.766;2023-04-15T13:38:23;3.08;;;0.85;;
51814;SDS011;37874;53.158;6.766;2023-04-15T13:40:49;2.05;;;0.70;;
51814;SDS011;37874;53.158;6.766;2023-04-15T13:43:15;1.50;;;0.52;;
51814;SDS011;37874;53.158;6.766;2023-04-15T13:45:41;2.10;;;0.80;;
51814;SDS011;37874;53.158;6.766;2023-04-15T13:48:07;3.00;;;0.90;;
51814;SDS011;37874;53.158;6.766;2023-04-15T13:50:33;2.22;;;0.63;;
51814;SDS011;37874;53.158;6.766;2023-04-15T13:52:58;1.73;;;0.70;;
51814;SDS011;37874;53.158;6.766;2023-04-15T13:55:24;2.45;;;0.65;;
51814;SDS011;37874;53.158;6.766;2023-04-15T13:57:50;2.38;;;0.70;;
51814;SDS011;37874;53.158;6.766;2023-04-15T14:00:16;2.17;;;0.68;;
51814;SDS011;37874;53.158;6.766;2023-04-15T14:02:41;2.60;;;0.77;;
51814;SDS011;37874;53.158;6.766;2023-04-15T14:05:07;2.60;;;0.68;;
51814;SDS011;37874;53.158;6.766;2023-04-15T14:07:33;3.17;;;0.80;;
51814;SDS011;37874;53.158;6.766;2023-04-15T14:09:59;2.45;;;0.75;;
51814;SDS011;37874;53.158;6.766;2023-04-15T14:12:25;3.28;;;0.88;;
51814;SDS011;37874;53.158;6.766;2023-04-15T14:14:50;3.10;;;0.70;;
51814;SDS011;37874;53.158;6.766;2023-04-15T14:17:16;2.80;;;0.90;;
51814;SDS011;37874;53.158;6.766;2023-04-15T14:19:42;2.05;;;0.80;;
51814;SDS011;37874;53.158;6.766;2023-04-15T14:22:07;2.10;;;0.60;;
51814;SDS011;37874;53.158;6.766;2023-04-15T14:24:33;2.42;;;0.70;;
51814;SDS011;37874;53.158;6.766;2023-04-15T14:26:58;2.28;;;0.75;;
51814;SDS011;37874;53.158;6.766;2023-04-15T14:29:24;3.42;;;0.70;;
51814;SDS011;37874;53.158;6.766;2023-04-15T14:31:50;2.85;;;0.70;;
51814;SDS011;37874;53.158;6.766;2023-04-15T14:34:16;3.88;;;0.80;;
51814;SDS011;37874;53.158;6.766;2023-04-15T14:36:41;1.60;;;0.60;;
51814;SDS011;37874;53.158;6.766;2023-04-15T14:39:07;2.20;;;0.60;;
51814;SDS011;37874;53.158;6.766;2023-04-15T14:41:33;2.33;;;0.85;;
51814;SDS011;37874;53.158;6.766;2023-04-15T14:43:59;1.80;;;0.63;;
51814;SDS011;37874;53.158;6.766;2023-04-15T14:46:25;2.03;;;0.70;;
51814;SDS011;37874;53.158;6.766;2023-04-15T14:48:50;2.22;;;0.70;;
51814;SDS011;37874;53.158;6.766;2023-04-15T14:51:16;2.67;;;0.85;;
51814;SDS011;37874;53.158;6.766;2023-04-15T14:53:42;2.20;;;0.60;;
51814;SDS011;37874;53.158;6.766;2023-04-15T14:56:08;2.20;;;0.60;;
51814;SDS011;37874;53.158;6.766;2023-04-15T14:58:34;2.33;;;0.88;;
51814;SDS011;37874;53.158;6.766;2023-04-15T15:01:00;2.72;;;0.90;;
51814;SDS011;37874;53.158;6.766;2023-04-15T15:03:26;2.22;;;0.73;;
51814;SDS011;37874;53.158;6.766;2023-04-15T15:05:53;2.35;;;0.60;;
51814;SDS011;37874;53.158;6.766;2023-04-15T15:08:18;2.92;;;0.80;;
51814;SDS011;37874;53.158;6.766;2023-04-15T15:10:44;3.55;;;1.00;;
51814;SDS011;37874;53.158;6.766;2023-04-15T15:13:10;2.90;;;1.02;;
51814;SDS011;37874;53.158;6.766;2023-04-15T15:15:36;2.28;;;0.80;;
51814;SDS011;37874;53.158;6.766;2023-04-15T15:18:02;3.15;;;0.80;;
51814;SDS011;37874;53.158;6.766;2023-04-15T15:20:28;2.28;;;0.73;;
51814;SDS011;37874;53.158;6.766;2023-04-15T15:22:54;2.85;;;0.85;;
51814;SDS011;37874;53.158;6.766;2023-04-15T15:25:20;1.73;;;0.70;;
51814;SDS011;37874;53.158;6.766;2023-04-15T15:27:46;2.30;;;0.70;;
51814;SDS011;37874;53.158;6.766;2023-04-15T15:30:12;3.50;;;1.00;;
51814;SDS011;37874;53.158;6.766;2023-04-15T15:32:38;2.70;;;0.82;;
51814;SDS011;37874;53.158;6.766;2023-04-15T15:35:04;2.38;;;0.85;;
51814;SDS011;37874;53.158;6.766;2023-04-15T15:37:30;3.92;;;0.90;;
51814;SDS011;37874;53.158;6.766;2023-04-15T15:39:56;4.20;;;1.00;;
51814;SDS011;37874;53.158;6.766;2023-04-15T15:42:22;2.63;;;0.90;;
51814;SDS011;37874;53.158;6.766;2023-04-15T15:44:48;2.50;;;0.70;;
51814;SDS011;37874;53.158;6.766;2023-04-15T15:47:20;2.42;;;0.80;;
51814;SDS011;37874;53.158;6.766;2023-04-15T15:49:46;2.55;;;0.90;;
51814;SDS011;37874;53.158;6.766;2023-04-15T15:52:11;3.53;;;1.00;;
51814;SDS011;37874;53.158;6.766;2023-04-15T15:54:38;5.25;;;1.42;;
51814;SDS011;37874;53.158;6.766;2023-04-15T15:57:04;3.38;;;0.82;;
51814;SDS011;37874;53.158;6.766;2023-04-15T15:59:30;3.15;;;0.80;;
51814;SDS011;37874;53.158;6.766;2023-04-15T16:01:57;3.28;;;0.75;;
51814;SDS011;37874;53.158;6.766;2023-04-15T16:04:23;4.55;;;1.02;;
51814;SDS011;37874;53.158;6.766;2023-04-15T16:06:48;4.68;;;0.98;;
51814;SDS011;37874;53.158;6.766;2023-04-15T16:09:14;2.78;;;0.85;;
51814;SDS011;37874;53.158;6.766;2023-04-15T16:11:40;3.30;;;1.13;;
51814;SDS011;37874;53.158;6.766;2023-04-15T16:14:05;4.50;;;1.10;;
51814;SDS011;37874;53.158;6.766;2023-04-15T16:16:31;2.47;;;1.00;;
51814;SDS011;37874;53.158;6.766;2023-04-15T16:18:56;3.15;;;0.93;;
51814;SDS011;37874;53.158;6.766;2023-04-15T16:21:22;2.90;;;0.95;;
51814;SDS011;37874;53.158;6.766;2023-04-15T16:23:51;2.90;;;0.82;;
51814;SDS011;37874;53.158;6.766;2023-04-15T16:26:17;3.60;;;1.10;;
51814;SDS011;37874;53.158;6.766;2023-04-15T16:28:43;2.45;;;1.00;;
51814;SDS011;37874;53.158;6.766;2023-04-15T16:31:11;2.75;;;0.95;;
51814;SDS011;37874;53.158;6.766;2023-04-15T16:33:37;2.47;;;0.90;;
51814;SDS011;37874;53.158;6.766;2023-04-15T16:36:03;2.25;;;0.80;;
51814;SDS011;37874;53.158;6.766;2023-04-15T16:38:29;6.00;;;1.40;;
51814;SDS011;37874;53.158;6.766;2023-04-15T16:40:56;2.35;;;0.80;;
51814;SDS011;37874;53.158;6.766;2023-04-15T16:43:23;2.63;;;0.80;;
51814;SDS011;37874;53.158;6.766;2023-04-15T16:45:49;3.17;;;1.08;;
51814;SDS011;37874;53.158;6.766;2023-04-15T16:48:15;2.83;;;1.00;;
51814;SDS011;37874;53.158;6.766;2023-04-15T16:50:41;4.22;;;1.10;;
51814;SDS011;37874;53.158;6.766;2023-04-15T16:53:07;2.97;;;1.00;;
51814;SDS011;37874;53.158;6.766;2023-04-15T16:55:33;3.15;;;0.90;;
51814;SDS011;37874;53.158;6.766;2023-04-15T16:57:58;3.53;;;1.02;;
51814;SDS011;37874;53.158;6.766;2023-04-15T17:00:24;2.35;;;0.82;;
51814;SDS011;37874;53.158;6.766;2023-04-15T17:02:49;3.58;;;1.00;;
51814;SDS011;37874;53.158;6.766;2023-04-15T17:05:15;3.53;;;1.10;;
51814;SDS011;37874;53.158;6.766;2023-04-15T17:07:41;3.13;;;0.90;;
51814;SDS011;37874;53.158;6.766;2023-04-15T17:10:07;3.13;;;1.10;;
51814;SDS011;37874;53.158;6.766;2023-04-15T17:12:32;3.38;;;1.00;;
51814;SDS011;37874;53.158;6.766;2023-04-15T17:14:58;4.50;;;1.17;;
51814;SDS011;37874;53.158;6.766;2023-04-15T17:17:23;3.35;;;1.30;;
51814;SDS011;37874;53.158;6.766;2023-04-15T17:19:49;5.55;;;1.20;;
51814;SDS011;37874;53.158;6.766;2023-04-15T17:22:15;4.95;;;1.55;;
51814;SDS011;37874;53.158;6.766;2023-04-15T17:24:41;4.55;;;1.42;;
51814;SDS011;37874;53.158;6.766;2023-04-15T17:27:06;4.57;;;1.45;;
51814;SDS011;37874;53.158;6.766;2023-04-15T17:29:32;3.22;;;1.08;;
51814;SDS011;37874;53.158;6.766;2023-04-15T17:31:57;4.63;;;1.48;;
51814;SDS011;37874;53.158;6.766;2023-04-15T17:34:24;5.22;;;1.45;;
51814;SDS011;37874;53.158;6.766;2023-04-15T17:36:51;3.17;;;1.15;;
51814;SDS011;37874;53.158;6.766;2023-04-15T17:39:17;5.20;;;1.33;;
51814;SDS011;37874;53.158;6.766;2023-04-15T17:41:43;5.50;;;1.60;;
51814;SDS011;37874;53.158;6.766;2023-04-15T17:44:08;3.92;;;1.10;;
51814;SDS011;37874;53.158;6.766;2023-04-15T17:46:34;4.18;;;1.33;;
51814;SDS011;37874;53.158;6.766;2023-04-15T17:49:00;3.28;;;1.10;;
51814;SDS011;37874;53.158;6.766;2023-04-15T17:51:26;4.30;;;1.42;;
51814;SDS011;37874;53.158;6.766;2023-04-15T17:53:52;3.97;;;1.30;;
51814;SDS011;37874;53.158;6.766;2023-04-15T17:56:17;3.65;;;1.20;;
51814;SDS011;37874;53.158;6.766;2023-04-15T17:58:43;4.93;;;1.30;;
51814;SDS011;37874;53.158;6.766;2023-04-15T18:01:09;4.47;;;1.48;;
51814;SDS011;37874;53.158;6.766;2023-04-15T18:03:34;3.80;;;1.30;;
51814;SDS011;37874;53.158;6.766;2023-04-15T18:06:00;4.65;;;1.75;;
51814;SDS011;37874;53.158;6.766;2023-04-15T18:08:26;4.90;;;1.42;;
51814;SDS011;37874;53.158;6.766;2023-04-15T18:10:52;3.70;;;1.45;;
51814;SDS011;37874;53.158;6.766;2023-04-15T18:13:18;3.97;;;1.35;;
51814;SDS011;37874;53.158;6.766;2023-04-15T18:15:43;5.57;;;1.75;;
51814;SDS011;37874;53.158;6.766;2023-04-15T18:18:09;4.38;;;1.20;;
51814;SDS011;37874;53.158;6.766;2023-04-15T18:20:35;4.15;;;1.20;;
51814;SDS011;37874;53.158;6.766;2023-04-15T18:23:00;3.53;;;1.20;;
51814;SDS011;37874;53.158;6.766;2023-04-15T18:25:26;4.05;;;1.40;;
51814;SDS011;37874;53.158;6.766;2023-04-15T18:27:53;5.65;;;1.65;;
51814;SDS011;37874;53.158;6.766;2023-04-15T18:30:18;3.63;;;1.30;;
51814;SDS011;37874;53.158;6.766;2023-04-15T18:32:44;5.00;;;1.30;;
51814;SDS011;37874;53.158;6.766;2023-04-15T18:35:10;3.42;;;1.38;;
51814;SDS011;37874;53.158;6.766;2023-04-15T18:37:35;3.60;;;1.38;;
51814;SDS011;37874;53.158;6.766;2023-04-15T18:40:01;3.13;;;1.33;;
51814;SDS011;37874;53.158;6.766;2023-04-15T18:42:26;4.22;;;1.50;;